createdAt,value
2018-12-19T00:01:13.275Z,-0.48
2018-12-19T00:04:17.137Z,-0.52
2018-12-19T00:07:21.025Z,-0.55
2018-12-19T00:10:22.927Z,-0.55
2018-12-19T00:13:25.726Z,-0.51
2018-12-19T00:16:27.521Z,-0.48
2018-12-19T00:19:29.212Z,-0.48
2018-12-19T00:22:31.120Z,-0.49
2018-12-19T00:25:32.810Z,-0.52
2018-12-19T00:28:36.659Z,-0.50
2018-12-19T00:31:40.485Z,-0.59
2018-12-19T00:34:44.298Z,-0.60
2018-12-19T00:37:46.070Z,-0.57
2018-12-19T00:41:15.355Z,-0.53
2018-12-19T00:44:17.432Z,-0.64
2018-12-19T00:47:19.247Z,-0.62
2018-12-19T00:50:20.992Z,-0.65
2018-12-19T00:53:22.876Z,-0.64
2018-12-19T00:56:24.727Z,-0.64
2018-12-19T00:59:26.581Z,-0.66
2018-12-19T01:02:28.326Z,-0.70
2018-12-19T01:05:30.124Z,-0.69
2018-12-19T01:08:31.855Z,-0.74
2018-12-19T01:11:33.703Z,-0.79
2018-12-19T01:14:36.544Z,-0.81
2018-12-19T01:17:38.334Z,-0.77
2018-12-19T01:20:40.115Z,-0.74
2018-12-19T01:23:41.890Z,-0.77
2018-12-19T01:26:43.610Z,-0.77
2018-12-19T01:29:45.496Z,-0.84
2018-12-19T01:32:47.405Z,-0.83
2018-12-19T01:35:49.186Z,-0.84
2018-12-19T01:38:50.954Z,-0.82
2018-12-19T01:41:52.797Z,-0.83
2018-12-19T01:44:54.807Z,-0.83
2018-12-19T01:47:56.561Z,-0.90
2018-12-19T01:50:58.283Z,-0.94
2018-12-19T01:54:00.179Z,-1.01
2018-12-19T01:57:01.917Z,-1.06
2018-12-19T02:00:04.105Z,-1.10
2018-12-19T02:03:05.901Z,-1.18
2018-12-19T02:06:07.780Z,-1.23
2018-12-19T02:09:09.537Z,-1.26
2018-12-19T02:12:12.267Z,-1.35
2018-12-19T02:15:14.157Z,-1.39
2018-12-19T02:18:16.099Z,-1.38
2018-12-19T02:21:17.846Z,-1.30
2018-12-19T02:24:19.650Z,-1.25
2018-12-19T02:27:21.408Z,-1.19
2018-12-19T02:30:23.209Z,-1.15
2018-12-19T02:33:24.976Z,-1.14
2018-12-19T02:36:26.784Z,-1.16
2018-12-19T02:39:28.509Z,-1.19
2018-12-19T02:42:30.265Z,-1.22
2018-12-19T02:45:32.081Z,-1.29
2018-12-19T02:48:33.903Z,-1.30
2018-12-19T02:51:35.734Z,-1.31
2018-12-19T02:54:37.464Z,-1.30
2018-12-19T02:57:39.264Z,-1.27
2018-12-19T03:00:41.016Z,-1.26
2018-12-19T03:03:42.801Z,-1.26
2018-12-19T03:06:44.577Z,-1.27
2018-12-19T03:09:46.333Z,-1.24
2018-12-19T03:12:48.127Z,-1.14
2018-12-19T03:15:49.930Z,-1.02
2018-12-19T03:18:51.754Z,-0.95
2018-12-19T03:21:53.500Z,-0.90
2018-12-19T03:24:55.247Z,-0.76
2018-12-19T03:27:56.983Z,-0.66
2018-12-19T03:30:58.756Z,-0.66
2018-12-19T03:34:02.502Z,-0.73
2018-12-19T03:37:04.317Z,-0.76
2018-12-19T03:40:06.312Z,-0.83
2018-12-19T03:43:08.076Z,-0.76
2018-12-19T03:46:09.981Z,-0.72
2018-12-19T03:49:11.825Z,-0.69
2018-12-19T03:52:13.671Z,-0.61
2018-12-19T03:55:15.505Z,-0.65
2018-12-19T03:58:17.333Z,-0.69
2018-12-19T04:01:19.345Z,-0.75
2018-12-19T04:04:21.163Z,-0.81
2018-12-19T04:07:22.964Z,-0.85
2018-12-19T04:10:24.666Z,-0.82
2018-12-19T04:13:26.453Z,-0.82
2018-12-19T04:16:28.433Z,-0.86
2018-12-19T04:19:30.306Z,-1.01
2018-12-19T04:22:41.166Z,-1.09
2018-12-19T04:25:43.000Z,-1.12
2018-12-19T04:28:45.017Z,-1.14
2018-12-19T04:31:46.837Z,-1.22
2018-12-19T04:34:48.656Z,-1.27
2018-12-19T04:37:50.377Z,-1.34
2018-12-19T04:40:52.156Z,-1.42
2018-12-19T04:43:53.924Z,-1.49
2018-12-19T04:47:02.817Z,-1.54
2018-12-19T04:50:04.716Z,-1.54
2018-12-19T04:53:06.535Z,-1.49
2018-12-19T04:56:08.294Z,-1.44
2018-12-19T04:59:10.090Z,-1.39
2018-12-19T05:02:12.105Z,-1.42
2018-12-19T05:05:13.920Z,-1.47
2018-12-19T05:08:15.655Z,-1.52
2018-12-19T05:11:17.402Z,-1.55
2018-12-19T05:14:19.296Z,-1.52
2018-12-19T05:17:21.205Z,-1.46
2018-12-19T05:23:57.062Z,-1.45
2018-12-19T05:26:58.862Z,-1.46
2018-12-19T05:30:00.682Z,-1.46
2018-12-19T05:33:02.515Z,-1.47
2018-12-19T05:36:04.332Z,-1.48
2018-12-19T05:39:06.114Z,-1.51
2018-12-19T05:42:07.860Z,-1.48
2018-12-19T05:45:09.553Z,-1.53
2018-12-19T05:48:11.288Z,-1.55
2018-12-19T05:51:13.101Z,-1.57
2018-12-19T05:54:14.987Z,-1.61
2018-12-19T05:57:17.353Z,-1.64
2018-12-19T06:00:22.157Z,-1.72
2018-12-19T06:03:25.882Z,-1.73
2018-12-19T06:06:27.616Z,-1.74
2018-12-19T06:09:29.511Z,-1.74
2018-12-19T06:12:31.305Z,-1.71
2018-12-19T06:15:33.065Z,-1.71
2018-12-19T06:18:34.835Z,-1.70
2018-12-19T06:21:36.732Z,-1.67
2018-12-19T06:24:38.625Z,-1.64
2018-12-19T06:27:40.404Z,-1.61
2018-12-19T06:30:42.200Z,-1.54
2018-12-19T06:33:44.495Z,-1.49
2018-12-19T06:36:53.233Z,-1.48
2018-12-19T06:39:54.971Z,-1.45
2018-12-19T06:42:56.681Z,-1.45
2018-12-19T06:45:58.523Z,-1.40
2018-12-19T06:49:00.353Z,-1.38
2018-12-19T06:52:02.695Z,-1.44
2018-12-19T06:55:04.655Z,-1.46
2018-12-19T06:58:06.350Z,-1.47
2018-12-19T07:01:08.111Z,-1.42
2018-12-19T07:04:09.852Z,-1.36
2018-12-19T07:07:11.569Z,-1.19
2018-12-19T07:10:13.485Z,-0.99
2018-12-19T07:13:15.391Z,-0.77
2018-12-19T07:16:17.277Z,-0.49
2018-12-19T07:19:19.070Z,-0.29
2018-12-19T07:22:20.922Z,-0.08
2018-12-19T07:25:22.693Z,-0.12
2018-12-19T07:28:24.511Z,-0.28
2018-12-19T07:31:26.299Z,-0.40
2018-12-19T07:34:28.167Z,-0.45
2018-12-19T07:37:29.886Z,-0.50
2018-12-19T07:40:31.861Z,-0.54
2018-12-19T07:43:33.647Z,-0.51
2018-12-19T07:46:35.821Z,-0.28
2018-12-19T07:49:44.729Z,0.05
2018-12-19T07:52:46.977Z,0.27
2018-12-19T07:55:49.334Z,0.67
2018-12-19T07:58:52.471Z,1.19
2018-12-19T08:01:54.392Z,1.84
2018-12-19T08:04:56.433Z,2.31
2018-12-19T08:07:58.274Z,2.51
2018-12-19T08:11:00.279Z,2.80
2018-12-19T08:14:02.805Z,3.13
2018-12-19T08:17:04.608Z,3.33
2018-12-19T08:20:06.729Z,3.67
2018-12-19T08:23:08.778Z,3.40
2018-12-19T08:26:10.645Z,2.23
2018-12-19T08:29:12.924Z,1.46
2018-12-19T08:32:14.671Z,1.10
2018-12-19T08:35:16.453Z,0.82
2018-12-19T08:38:18.204Z,0.75
2018-12-19T08:41:20.033Z,0.76
2018-12-19T08:44:21.826Z,0.79
2018-12-19T08:47:23.655Z,0.87
2018-12-19T08:50:25.587Z,0.98
2018-12-19T08:53:27.525Z,1.16
2018-12-19T08:56:29.412Z,1.30
2018-12-19T08:59:31.284Z,1.47
2018-12-19T09:02:33.065Z,1.65
2018-12-19T09:05:34.802Z,2.76
2018-12-19T09:08:36.623Z,4.03
2018-12-19T09:11:38.383Z,4.22
2018-12-19T09:14:40.223Z,3.93
2018-12-19T09:17:42.025Z,3.46
2018-12-19T09:20:45.271Z,2.98
2018-12-19T09:23:47.148Z,2.38
2018-12-19T09:26:48.960Z,1.92
2018-12-19T09:29:50.875Z,1.71
2018-12-19T09:32:52.818Z,1.64
2018-12-19T09:35:54.624Z,1.52
2018-12-19T09:38:56.445Z,1.48
2018-12-19T09:41:58.346Z,1.52
2018-12-19T09:45:00.105Z,1.69
2018-12-19T09:48:01.907Z,1.70
2018-12-19T09:51:03.988Z,1.71
2018-12-19T09:54:05.898Z,1.89
2018-12-19T09:57:07.798Z,1.99
2018-12-19T10:00:12.498Z,2.20
2018-12-19T10:03:14.438Z,2.23
2018-12-19T10:06:16.842Z,2.19
2018-12-19T10:09:18.611Z,2.19
2018-12-19T10:12:20.533Z,2.13
2018-12-19T10:15:22.771Z,2.22
2018-12-19T10:18:24.671Z,2.21
2018-12-19T10:21:26.668Z,2.14
2018-12-19T10:24:34.425Z,2.15
2018-12-19T10:27:36.280Z,2.17
2018-12-19T10:30:44.052Z,2.22
2018-12-19T10:33:45.832Z,2.27
2018-12-19T10:36:47.655Z,2.26
2018-12-19T10:39:49.477Z,2.24
2018-12-19T10:42:51.482Z,2.39
2018-12-19T10:45:53.390Z,2.53
2018-12-19T10:48:55.168Z,2.52
2018-12-19T10:51:57.029Z,2.51
2018-12-19T10:54:58.828Z,2.46
2018-12-19T10:58:00.647Z,2.40
2018-12-19T11:01:02.568Z,2.40
2018-12-19T11:04:04.526Z,2.47
2018-12-19T11:07:06.276Z,2.36
2018-12-19T11:10:08.249Z,2.52
2018-12-19T11:13:10.034Z,2.63
2018-12-19T11:16:11.812Z,2.72
2018-12-19T11:19:13.548Z,2.75
2018-12-19T11:22:15.351Z,2.76
2018-12-19T11:25:17.109Z,2.75
2018-12-19T11:28:18.899Z,2.73
2018-12-19T11:31:21.789Z,2.69
2018-12-19T11:34:23.624Z,2.59
2018-12-19T11:37:25.497Z,2.56
2018-12-19T11:40:27.262Z,2.57
2018-12-19T11:43:29.074Z,2.58
2018-12-19T11:46:30.854Z,2.66
2018-12-19T11:49:32.731Z,2.70
2018-12-19T11:52:34.686Z,2.82
2018-12-19T11:55:36.508Z,2.93
2018-12-19T11:58:38.300Z,2.93
2018-12-19T12:01:41.499Z,3.01
2018-12-19T12:04:43.579Z,3.11
2018-12-19T12:07:47.421Z,3.21
2018-12-19T12:10:49.158Z,3.19
2018-12-19T12:13:50.980Z,3.21
2018-12-19T12:16:52.761Z,3.40
2018-12-19T12:19:54.632Z,3.49
2018-12-19T12:22:56.464Z,3.47
2018-12-19T12:26:05.236Z,3.56
2018-12-19T12:29:07.118Z,3.58
2018-12-19T12:32:08.995Z,3.55
2018-12-19T12:35:10.908Z,3.62
2018-12-19T12:38:12.685Z,3.69
2018-12-19T12:41:14.400Z,3.74
2018-12-19T12:44:16.224Z,3.72
2018-12-19T12:47:18.050Z,3.71
2018-12-19T12:50:19.799Z,3.68
2018-12-19T12:53:21.672Z,3.71
2018-12-19T12:56:23.507Z,3.72
2018-12-19T12:59:25.217Z,3.76
2018-12-19T13:02:27.061Z,3.70
2018-12-19T13:05:28.909Z,3.57
2018-12-19T13:08:30.622Z,3.42
2018-12-19T13:11:32.400Z,3.31
2018-12-19T13:14:34.241Z,3.31
2018-12-19T13:17:36.054Z,3.34
2018-12-19T13:20:37.971Z,3.26
2018-12-19T13:23:39.711Z,3.16
2018-12-19T13:26:41.579Z,3.13
2018-12-19T13:29:43.557Z,3.07
2018-12-19T13:32:45.993Z,3.04
2018-12-19T13:35:47.838Z,3.12
2018-12-19T13:38:49.686Z,3.25
2018-12-19T13:41:51.463Z,3.25
2018-12-19T13:44:53.342Z,3.22
2018-12-19T13:47:55.287Z,3.27
2018-12-19T13:50:57.228Z,3.27
2018-12-19T13:53:59.026Z,3.27
2018-12-19T13:57:01.114Z,3.30
2018-12-19T14:00:05.650Z,3.32
2018-12-19T14:03:07.583Z,3.27
2018-12-19T14:06:09.299Z,3.31
2018-12-19T14:09:11.490Z,3.26
2018-12-19T14:12:13.340Z,3.24
2018-12-19T14:15:15.279Z,3.21
2018-12-19T14:18:17.159Z,3.19
2018-12-19T14:21:18.952Z,3.28
2018-12-19T14:24:20.836Z,3.36
2018-12-19T14:27:22.566Z,3.35
2018-12-19T14:30:24.425Z,3.36
2018-12-19T14:33:26.298Z,3.42
2018-12-19T14:36:28.192Z,3.38
2018-12-19T14:39:30.098Z,3.30
2018-12-19T14:42:32.003Z,3.23
2018-12-19T14:45:33.971Z,3.22
2018-12-19T14:48:35.810Z,3.28
2018-12-19T14:51:39.034Z,3.30
2018-12-19T14:54:40.905Z,3.28
2018-12-19T14:57:42.679Z,3.26
2018-12-19T15:00:44.578Z,3.20
2018-12-19T15:03:46.385Z,3.17
2018-12-19T15:06:48.148Z,3.21
2018-12-19T15:09:50.074Z,3.31
2018-12-19T15:12:52.372Z,3.36
2018-12-19T15:16:00.199Z,3.34
2018-12-19T15:19:02.097Z,3.20
2018-12-19T15:22:03.908Z,3.16
2018-12-19T15:25:06.053Z,3.12
2018-12-19T15:28:07.984Z,3.16
2018-12-19T15:31:09.758Z,3.19
2018-12-19T15:34:11.518Z,3.12
2018-12-19T15:37:13.795Z,3.12
2018-12-19T15:40:15.585Z,3.13
2018-12-19T15:43:17.657Z,3.08
2018-12-19T15:46:19.499Z,3.08
2018-12-19T15:49:21.359Z,3.09
2018-12-19T15:52:23.340Z,3.00
2018-12-19T15:55:25.321Z,3.09
2018-12-19T15:58:27.069Z,3.09
2018-12-19T16:01:28.929Z,3.07
2018-12-19T16:04:30.853Z,3.13
2018-12-19T16:07:32.864Z,3.12
2018-12-19T16:10:34.775Z,3.14
2018-12-19T16:13:36.573Z,3.11
2018-12-19T16:16:38.456Z,3.06
2018-12-19T16:19:40.345Z,3.09
2018-12-19T16:22:42.168Z,3.13
2018-12-19T16:25:44.144Z,3.09
2018-12-19T16:28:45.951Z,3.09
2018-12-19T16:31:47.804Z,3.09
2018-12-19T16:34:49.676Z,3.03
2018-12-19T16:37:51.565Z,3.05
2018-12-19T16:40:53.385Z,3.03
2018-12-19T16:43:56.364Z,3.04
2018-12-19T16:46:58.118Z,3.03
2018-12-19T16:49:59.914Z,3.04
2018-12-19T16:53:01.629Z,3.06
2018-12-19T16:56:04.613Z,3.08
2018-12-19T16:59:06.377Z,3.11
2018-12-19T17:02:08.933Z,3.06
2018-12-19T17:05:10.716Z,3.09
2018-12-19T17:08:13.621Z,3.09
2018-12-19T17:11:15.440Z,3.05
2018-12-19T17:14:17.476Z,3.02
2018-12-19T17:17:19.371Z,3.08
2018-12-19T17:20:21.280Z,3.09
2018-12-19T17:23:23.235Z,3.08
2018-12-19T17:26:25.294Z,3.05
2018-12-19T17:29:28.263Z,3.08
2018-12-19T17:32:30.365Z,3.03
2018-12-19T17:35:32.703Z,3.01
2018-12-19T17:38:34.927Z,2.99
2018-12-19T17:41:52.230Z,3.00
2018-12-19T17:44:54.418Z,2.95
2018-12-19T17:47:56.458Z,2.95
2018-12-19T17:50:58.474Z,3.01
2018-12-19T17:54:00.434Z,3.07
2018-12-19T17:57:02.429Z,3.11
2018-12-19T18:00:05.037Z,3.09
2018-12-19T18:03:07.147Z,3.12
2018-12-19T18:06:09.133Z,3.09
2018-12-19T18:09:11.300Z,3.06
2018-12-19T18:12:13.344Z,3.02
2018-12-19T18:15:15.376Z,3.03
2018-12-19T18:18:17.436Z,3.01
2018-12-19T18:21:20.587Z,2.97
2018-12-19T18:24:22.950Z,3.01
2018-12-19T18:27:25.037Z,3.00
2018-12-19T18:30:27.250Z,3.01
2018-12-19T18:33:29.349Z,2.94
2018-12-19T18:36:31.440Z,2.94
2018-12-19T18:39:33.432Z,2.94
2018-12-19T18:42:35.669Z,2.87
2018-12-19T18:45:37.653Z,2.85
2018-12-19T18:48:39.777Z,2.82
2018-12-19T18:51:41.786Z,2.81
2018-12-19T18:54:43.697Z,2.87
2018-12-19T18:57:45.686Z,2.85
2018-12-19T19:00:49.792Z,2.80
2018-12-19T19:03:51.843Z,2.76
2018-12-19T19:06:53.964Z,2.69
2018-12-19T19:09:55.992Z,2.64
2018-12-19T19:12:58.035Z,2.59
2018-12-19T19:16:01.547Z,2.58
2018-12-19T19:19:04.441Z,2.59
2018-12-19T19:22:06.578Z,2.61
2018-12-19T19:25:09.030Z,2.61
2018-12-19T19:28:11.166Z,2.62
2018-12-19T19:31:13.506Z,2.63
2018-12-19T19:34:16.037Z,2.56
2018-12-19T19:37:18.073Z,2.56
2018-12-19T19:40:21.225Z,2.60
2018-12-19T19:43:26.710Z,2.57
2018-12-19T19:46:31.695Z,2.57
2018-12-19T19:49:36.568Z,2.54
2018-12-19T19:52:39.585Z,2.48
2018-12-19T19:55:42.715Z,2.52
2018-12-19T19:58:48.065Z,2.50
2018-12-19T20:01:50.547Z,2.56
2018-12-19T20:04:54.308Z,2.57
2018-12-19T20:07:56.403Z,2.57
2018-12-19T20:10:58.601Z,2.51
2018-12-19T20:14:01.630Z,2.45
2018-12-19T20:17:04.186Z,2.43
2018-12-19T20:20:07.534Z,2.31
2018-12-19T20:23:09.593Z,2.37
2018-12-19T20:26:11.991Z,2.31
2018-12-19T20:29:14.136Z,2.29
2018-12-19T20:32:16.280Z,2.26
2018-12-19T20:35:19.595Z,2.25
2018-12-19T20:38:21.788Z,2.18
2018-12-19T20:41:23.955Z,2.18
2018-12-19T20:44:26.075Z,2.18
2018-12-19T20:47:29.107Z,2.15
2018-12-19T20:50:32.087Z,2.13
2018-12-19T20:53:35.291Z,2.11
2018-12-19T20:56:38.667Z,2.07
2018-12-19T20:59:41.663Z,2.05
2018-12-19T21:02:44.123Z,2.06
2018-12-19T21:05:53.238Z,2.01
2018-12-19T21:08:55.240Z,1.96
2018-12-19T21:11:57.468Z,1.99
2018-12-19T21:14:59.518Z,1.96
2018-12-19T21:18:07.616Z,2.01
2018-12-19T21:21:09.699Z,2.00
2018-12-19T21:24:11.793Z,2.01
2018-12-19T21:27:13.811Z,2.02
2018-12-19T21:30:15.890Z,2.09
2018-12-19T21:33:18.583Z,2.08
2018-12-19T21:36:20.682Z,2.13
2018-12-19T21:39:22.718Z,2.18
2018-12-19T21:42:24.723Z,2.20
2018-12-19T21:45:26.599Z,2.21
2018-12-19T21:48:28.704Z,2.26
2018-12-19T21:51:30.471Z,2.34
2018-12-19T21:54:32.510Z,2.37
2018-12-19T21:57:41.639Z,2.40
2018-12-19T22:00:43.463Z,2.48
2018-12-19T22:03:45.247Z,2.54
2018-12-19T22:06:47.056Z,2.62
2018-12-19T22:09:48.945Z,2.67
2018-12-19T22:12:50.928Z,2.76
2018-12-19T22:15:52.791Z,2.79
2018-12-19T22:18:56.766Z,2.80
2018-12-19T22:21:58.708Z,2.83
2018-12-19T22:34:22.016Z,2.70
2018-12-19T22:37:26.311Z,2.75
2018-12-19T22:54:11.076Z,3.06
2018-12-19T22:57:13.235Z,3.03
2018-12-19T23:00:24.274Z,3.05
2018-12-19T23:03:31.550Z,3.04
2018-12-19T23:06:34.207Z,2.95
2018-12-19T23:14:15.362Z,2.91
2018-12-19T23:17:25.945Z,2.97
2018-12-19T23:20:34.217Z,2.84
2018-12-19T23:23:42.172Z,2.69
2018-12-19T23:26:46.499Z,2.58
2018-12-19T23:29:50.511Z,2.47
2018-12-19T23:32:52.514Z,2.46
2018-12-19T23:35:54.325Z,2.53
2018-12-19T23:38:56.072Z,2.61
2018-12-19T23:41:57.888Z,2.68
2018-12-19T23:44:59.723Z,2.78
2018-12-19T23:48:01.713Z,2.80
2018-12-19T23:51:03.756Z,2.86
2018-12-19T23:54:05.725Z,2.93
2018-12-19T23:57:08.024Z,2.96
